sensor_id;sensor_type;location;lat;lon;timestamp;P1;durP1;ratioP1;P2;durP2;ratioP2
75823;SDS011;64457;51.976;9.834;2023-01-10T00:00:19;15.10;;;7.03;;
75823;SDS011;64457;51.976;9.834;2023-01-10T00:10:57;15.63;;;6.57;;
75823;SDS011;64457;51.976;9.834;2023-01-10T00:13:44;19.27;;;8.27;;
75823;SDS011;64457;51.976;9.834;2023-01-10T00:16:11;14.73;;;6.97;;
75823;SDS011;64457;51.976;9.834;2023-01-10T00:18:38;14.80;;;6.90;;
75823;SDS011;64457;51.976;9.834;2023-01-10T00:21:06;16.50;;;8.10;;
75823;SDS011;64457;51.976;9.834;2023-01-10T00:23:34;21.23;;;7.27;;
75823;SDS011;64457;51.976;9.834;2023-01-10T00:26:04;14.10;;;6.67;;
75823;SDS011;64457;51.976;9.834;2023-01-10T00:28:35;14.10;;;6.77;;
75823;SDS011;64457;51.976;9.834;2023-01-10T00:31:03;10.77;;;5.80;;
75823;SDS011;64457;51.976;9.834;2023-01-10T00:33:32;12.60;;;6.40;;
75823;SDS011;64457;51.976;9.834;2023-01-10T00:36:00;11.90;;;6.13;;
75823;SDS011;64457;51.976;9.834;2023-01-10T00:38:29;13.27;;;6.73;;
75823;SDS011;64457;51.976;9.834;2023-01-10T00:40:58;14.67;;;6.40;;
75823;SDS011;64457;51.976;9.834;2023-01-10T00:43:28;12.90;;;6.87;;
75823;SDS011;64457;51.976;9.834;2023-01-10T00:46:12;11.93;;;6.00;;
75823;SDS011;64457;51.976;9.834;2023-01-10T00:48:40;13.93;;;6.60;;
75823;SDS011;64457;51.976;9.834;2023-01-10T00:51:08;15.50;;;7.00;;
75823;SDS011;64457;51.976;9.834;2023-01-10T00:53:36;14.70;;;7.60;;
75823;SDS011;64457;51.976;9.834;2023-01-10T00:56:03;20.90;;;7.70;;
75823;SDS011;64457;51.976;9.834;2023-01-10T00:58:33;13.93;;;6.90;;
75823;SDS011;64457;51.976;9.834;2023-01-10T01:01:01;13.50;;;6.83;;
75823;SDS011;64457;51.976;9.834;2023-01-10T01:03:28;15.50;;;7.77;;
75823;SDS011;64457;51.976;9.834;2023-01-10T01:05:55;15.03;;;7.57;;
75823;SDS011;64457;51.976;9.834;2023-01-10T01:08:23;14.67;;;7.03;;
75823;SDS011;64457;51.976;9.834;2023-01-10T01:10:50;13.47;;;7.43;;
75823;SDS011;64457;51.976;9.834;2023-01-10T01:13:20;15.70;;;7.73;;
75823;SDS011;64457;51.976;9.834;2023-01-10T01:15:49;15.90;;;7.30;;
75823;SDS011;64457;51.976;9.834;2023-01-10T01:18:17;14.47;;;6.70;;
75823;SDS011;64457;51.976;9.834;2023-01-10T01:20:47;14.60;;;7.30;;
75823;SDS011;64457;51.976;9.834;2023-01-10T01:23:18;14.47;;;7.33;;
75823;SDS011;64457;51.976;9.834;2023-01-10T01:25:48;18.63;;;8.47;;
75823;SDS011;64457;51.976;9.834;2023-01-10T01:28:16;14.73;;;7.37;;
75823;SDS011;64457;51.976;9.834;2023-01-10T01:30:44;16.90;;;8.40;;
75823;SDS011;64457;51.976;9.834;2023-01-10T01:33:13;16.30;;;8.43;;
75823;SDS011;64457;51.976;9.834;2023-01-10T01:35:41;18.23;;;8.50;;
75823;SDS011;64457;51.976;9.834;2023-01-10T01:38:09;25.47;;;9.13;;
75823;SDS011;64457;51.976;9.834;2023-01-10T01:40:37;17.50;;;8.10;;
75823;SDS011;64457;51.976;9.834;2023-01-10T01:43:08;17.60;;;9.10;;
75823;SDS011;64457;51.976;9.834;2023-01-10T01:45:49;15.70;;;8.10;;
75823;SDS011;64457;51.976;9.834;2023-01-10T01:48:28;14.60;;;7.80;;
75823;SDS011;64457;51.976;9.834;2023-01-10T01:51:02;14.20;;;8.00;;
75823;SDS011;64457;51.976;9.834;2023-01-10T01:53:38;14.60;;;7.30;;
75823;SDS011;64457;51.976;9.834;2023-01-10T01:56:10;14.53;;;7.53;;
75823;SDS011;64457;51.976;9.834;2023-01-10T01:58:43;15.27;;;7.90;;
75823;SDS011;64457;51.976;9.834;2023-01-10T02:01:16;15.47;;;8.23;;
75823;SDS011;64457;51.976;9.834;2023-01-10T02:03:46;15.90;;;7.80;;
75823;SDS011;64457;51.976;9.834;2023-01-10T02:06:17;16.70;;;7.80;;
75823;SDS011;64457;51.976;9.834;2023-01-10T02:08:48;20.77;;;8.27;;
75823;SDS011;64457;51.976;9.834;2023-01-10T02:11:20;16.37;;;7.70;;
75823;SDS011;64457;51.976;9.834;2023-01-10T02:13:48;16.33;;;7.70;;
75823;SDS011;64457;51.976;9.834;2023-01-10T02:16:17;18.40;;;8.27;;
75823;SDS011;64457;51.976;9.834;2023-01-10T02:18:47;15.87;;;7.10;;
75823;SDS011;64457;51.976;9.834;2023-01-10T02:21:20;15.97;;;7.97;;
75823;SDS011;64457;51.976;9.834;2023-01-10T02:27:21;17.37;;;7.87;;
75823;SDS011;64457;51.976;9.834;2023-01-10T02:30:01;17.77;;;6.77;;
75823;SDS011;64457;51.976;9.834;2023-01-10T02:33:19;15.73;;;6.70;;
75823;SDS011;64457;51.976;9.834;2023-01-10T02:35:55;14.70;;;5.90;;
75823;SDS011;64457;51.976;9.834;2023-01-10T02:38:45;10.30;;;4.57;;
75823;SDS011;64457;51.976;9.834;2023-01-10T02:41:25;13.90;;;5.83;;
75823;SDS011;64457;51.976;9.834;2023-01-10T02:44:01;20.80;;;6.40;;
75823;SDS011;64457;51.976;9.834;2023-01-10T02:46:35;11.40;;;5.23;;
75823;SDS011;64457;51.976;9.834;2023-01-10T02:49:06;13.70;;;4.17;;
75823;SDS011;64457;51.976;9.834;2023-01-10T02:51:34;9.23;;;3.80;;
75823;SDS011;64457;51.976;9.834;2023-01-10T02:54:02;13.23;;;3.90;;
75823;SDS011;64457;51.976;9.834;2023-01-10T03:02:43;11.67;;;3.57;;
75823;SDS011;64457;51.976;9.834;2023-01-10T03:05:40;11.00;;;3.37;;
75823;SDS011;64457;51.976;9.834;2023-01-10T03:08:22;8.67;;;3.50;;
75823;SDS011;64457;51.976;9.834;2023-01-10T03:10:56;11.60;;;3.57;;
75823;SDS011;64457;51.976;9.834;2023-01-10T03:13:28;8.70;;;2.73;;
75823;SDS011;64457;51.976;9.834;2023-01-10T03:16:01;10.93;;;3.40;;
75823;SDS011;64457;51.976;9.834;2023-01-10T03:18:32;7.83;;;2.40;;
75823;SDS011;64457;51.976;9.834;2023-01-10T03:21:07;9.63;;;2.50;;
75823;SDS011;64457;51.976;9.834;2023-01-10T03:23:37;8.67;;;2.50;;
75823;SDS011;64457;51.976;9.834;2023-01-10T03:26:06;9.17;;;2.83;;
75823;SDS011;64457;51.976;9.834;2023-01-10T03:28:40;7.10;;;2.27;;
75823;SDS011;64457;51.976;9.834;2023-01-10T03:31:14;9.60;;;1.93;;
75823;SDS011;64457;51.976;9.834;2023-01-10T03:33:46;5.93;;;1.87;;
75823;SDS011;64457;51.976;9.834;2023-01-10T03:36:18;5.50;;;1.90;;
75823;SDS011;64457;51.976;9.834;2023-01-10T03:38:55;11.70;;;2.23;;
75823;SDS011;64457;51.976;9.834;2023-01-10T03:41:33;9.83;;;2.53;;
75823;SDS011;64457;51.976;9.834;2023-01-10T03:44:07;9.17;;;2.17;;
75823;SDS011;64457;51.976;9.834;2023-01-10T03:46:59;6.80;;;1.90;;
75823;SDS011;64457;51.976;9.834;2023-01-10T03:49:32;13.03;;;2.43;;
75823;SDS011;64457;51.976;9.834;2023-01-10T03:52:06;10.07;;;2.50;;
75823;SDS011;64457;51.976;9.834;2023-01-10T03:54:40;12.90;;;2.80;;
75823;SDS011;64457;51.976;9.834;2023-01-10T03:57:13;9.53;;;3.50;;
75823;SDS011;64457;51.976;9.834;2023-01-10T03:59:43;11.40;;;3.40;;
75823;SDS011;64457;51.976;9.834;2023-01-10T04:02:11;13.53;;;2.87;;
75823;SDS011;64457;51.976;9.834;2023-01-10T04:04:39;8.10;;;2.87;;
75823;SDS011;64457;51.976;9.834;2023-01-10T04:07:08;8.57;;;2.93;;
75823;SDS011;64457;51.976;9.834;2023-01-10T04:09:36;11.70;;;3.20;;
75823;SDS011;64457;51.976;9.834;2023-01-10T04:12:04;9.20;;;3.30;;
75823;SDS011;64457;51.976;9.834;2023-01-10T04:14:31;10.73;;;3.20;;
75823;SDS011;64457;51.976;9.834;2023-01-10T04:16:59;8.00;;;3.00;;
75823;SDS011;64457;51.976;9.834;2023-01-10T04:19:26;11.60;;;3.47;;
75823;SDS011;64457;51.976;9.834;2023-01-10T04:21:54;10.10;;;2.97;;
75823;SDS011;64457;51.976;9.834;2023-01-10T04:24:23;9.27;;;3.40;;
75823;SDS011;64457;51.976;9.834;2023-01-10T04:26:51;14.60;;;3.83;;
75823;SDS011;64457;51.976;9.834;2023-01-10T04:29:18;10.60;;;3.70;;
75823;SDS011;64457;51.976;9.834;2023-01-10T04:31:46;13.43;;;3.67;;
75823;SDS011;64457;51.976;9.834;2023-01-10T04:34:14;13.10;;;3.80;;
75823;SDS011;64457;51.976;9.834;2023-01-10T04:36:44;17.53;;;4.30;;
75823;SDS011;64457;51.976;9.834;2023-01-10T04:39:12;14.20;;;4.10;;
75823;SDS011;64457;51.976;9.834;2023-01-10T04:41:41;14.47;;;4.30;;
75823;SDS011;64457;51.976;9.834;2023-01-10T04:44:09;11.57;;;3.80;;
75823;SDS011;64457;51.976;9.834;2023-01-10T04:46:37;12.90;;;4.53;;
75823;SDS011;64457;51.976;9.834;2023-01-10T04:49:04;16.70;;;4.57;;
75823;SDS011;64457;51.976;9.834;2023-01-10T04:51:32;19.23;;;4.17;;
75823;SDS011;64457;51.976;9.834;2023-01-10T04:53:59;8.93;;;4.00;;
75823;SDS011;64457;51.976;9.834;2023-01-10T04:56:27;12.83;;;4.37;;
75823;SDS011;64457;51.976;9.834;2023-01-10T04:58:56;13.00;;;3.97;;
75823;SDS011;64457;51.976;9.834;2023-01-10T05:01:24;19.70;;;5.77;;
75823;SDS011;64457;51.976;9.834;2023-01-10T05:03:53;21.60;;;5.17;;
75823;SDS011;64457;51.976;9.834;2023-01-10T05:06:23;15.07;;;5.40;;
75823;SDS011;64457;51.976;9.834;2023-01-10T05:08:50;24.80;;;5.20;;
75823;SDS011;64457;51.976;9.834;2023-01-10T05:11:18;19.60;;;4.70;;
75823;SDS011;64457;51.976;9.834;2023-01-10T05:13:45;13.37;;;5.53;;
75823;SDS011;64457;51.976;9.834;2023-01-10T05:16:15;18.37;;;5.10;;
75823;SDS011;64457;51.976;9.834;2023-01-10T05:18:43;17.10;;;4.90;;
75823;SDS011;64457;51.976;9.834;2023-01-10T05:21:11;16.30;;;5.07;;
75823;SDS011;64457;51.976;9.834;2023-01-10T05:23:39;33.40;;;5.37;;
75823;SDS011;64457;51.976;9.834;2023-01-10T05:26:08;20.00;;;5.40;;
75823;SDS011;64457;51.976;9.834;2023-01-10T05:28:39;20.70;;;6.53;;
75823;SDS011;64457;51.976;9.834;2023-01-10T05:31:08;26.70;;;7.57;;
75823;SDS011;64457;51.976;9.834;2023-01-10T05:33:41;17.33;;;6.70;;
75823;SDS011;64457;51.976;9.834;2023-01-10T05:36:11;18.03;;;5.43;;
75823;SDS011;64457;51.976;9.834;2023-01-10T05:38:38;20.30;;;5.77;;
75823;SDS011;64457;51.976;9.834;2023-01-10T05:41:06;13.53;;;5.20;;
75823;SDS011;64457;51.976;9.834;2023-01-10T05:43:34;22.10;;;5.57;;
75823;SDS011;64457;51.976;9.834;2023-01-10T05:46:02;31.13;;;6.30;;
75823;SDS011;64457;51.976;9.834;2023-01-10T05:48:30;14.80;;;5.30;;
75823;SDS011;64457;51.976;9.834;2023-01-10T05:50:59;22.80;;;5.43;;
75823;SDS011;64457;51.976;9.834;2023-01-10T05:53:27;20.53;;;6.07;;
75823;SDS011;64457;51.976;9.834;2023-01-10T05:55:56;19.27;;;6.37;;
75823;SDS011;64457;51.976;9.834;2023-01-10T05:58:25;22.17;;;6.37;;
75823;SDS011;64457;51.976;9.834;2023-01-10T06:00:54;15.00;;;5.60;;
75823;SDS011;64457;51.976;9.834;2023-01-10T06:03:26;18.23;;;6.27;;
75823;SDS011;64457;51.976;9.834;2023-01-10T06:05:55;19.67;;;7.27;;
75823;SDS011;64457;51.976;9.834;2023-01-10T06:08:24;17.63;;;7.07;;
75823;SDS011;64457;51.976;9.834;2023-01-10T06:10:51;15.37;;;5.90;;
75823;SDS011;64457;51.976;9.834;2023-01-10T06:13:20;17.50;;;6.40;;
75823;SDS011;64457;51.976;9.834;2023-01-10T06:15:47;22.70;;;6.47;;
75823;SDS011;64457;51.976;9.834;2023-01-10T06:18:16;27.60;;;8.00;;
75823;SDS011;64457;51.976;9.834;2023-01-10T06:20:43;15.47;;;5.43;;
75823;SDS011;64457;51.976;9.834;2023-01-10T06:23:11;20.03;;;6.40;;
75823;SDS011;64457;51.976;9.834;2023-01-10T06:25:41;20.97;;;7.27;;
75823;SDS011;64457;51.976;9.834;2023-01-10T06:28:09;15.30;;;6.13;;
75823;SDS011;64457;51.976;9.834;2023-01-10T06:30:39;29.27;;;6.60;;
75823;SDS011;64457;51.976;9.834;2023-01-10T06:33:09;19.13;;;6.47;;
75823;SDS011;64457;51.976;9.834;2023-01-10T06:35:38;17.60;;;6.80;;
75823;SDS011;64457;51.976;9.834;2023-01-10T06:38:05;28.53;;;7.03;;
75823;SDS011;64457;51.976;9.834;2023-01-10T06:40:33;20.60;;;6.97;;
75823;SDS011;64457;51.976;9.834;2023-01-10T06:43:02;16.87;;;7.10;;
75823;SDS011;64457;51.976;9.834;2023-01-10T06:45:29;18.67;;;6.90;;
75823;SDS011;64457;51.976;9.834;2023-01-10T06:47:58;20.50;;;6.70;;
75823;SDS011;64457;51.976;9.834;2023-01-10T06:50:26;23.80;;;7.60;;
75823;SDS011;64457;51.976;9.834;2023-01-10T06:52:54;18.97;;;7.00;;
75823;SDS011;64457;51.976;9.834;2023-01-10T06:55:22;22.60;;;7.40;;
75823;SDS011;64457;51.976;9.834;2023-01-10T06:57:53;19.50;;;7.10;;
75823;SDS011;64457;51.976;9.834;2023-01-10T07:00:23;22.53;;;7.20;;
75823;SDS011;64457;51.976;9.834;2023-01-10T07:02:53;17.50;;;8.30;;
75823;SDS011;64457;51.976;9.834;2023-01-10T07:05:22;17.90;;;7.23;;
75823;SDS011;64457;51.976;9.834;2023-01-10T07:07:49;21.37;;;7.53;;
75823;SDS011;64457;51.976;9.834;2023-01-10T07:10:18;20.43;;;7.47;;
75823;SDS011;64457;51.976;9.834;2023-01-10T07:12:45;25.00;;;8.50;;
75823;SDS011;64457;51.976;9.834;2023-01-10T07:15:13;19.20;;;7.20;;
75823;SDS011;64457;51.976;9.834;2023-01-10T07:17:42;20.23;;;7.50;;
75823;SDS011;64457;51.976;9.834;2023-01-10T07:20:10;17.80;;;7.70;;
75823;SDS011;64457;51.976;9.834;2023-01-10T07:22:38;19.63;;;7.80;;
75823;SDS011;64457;51.976;9.834;2023-01-10T07:25:06;20.73;;;7.93;;
75823;SDS011;64457;51.976;9.834;2023-01-10T07:27:34;23.90;;;8.50;;
75823;SDS011;64457;51.976;9.834;2023-01-10T07:30:03;20.53;;;7.63;;
75823;SDS011;64457;51.976;9.834;2023-01-10T07:32:32;21.77;;;8.37;;
75823;SDS011;64457;51.976;9.834;2023-01-10T07:35:01;22.03;;;8.70;;
75823;SDS011;64457;51.976;9.834;2023-01-10T07:37:29;20.43;;;8.57;;
75823;SDS011;64457;51.976;9.834;2023-01-10T07:39:57;27.70;;;8.00;;
75823;SDS011;64457;51.976;9.834;2023-01-10T07:42:25;28.27;;;8.90;;
75823;SDS011;64457;51.976;9.834;2023-01-10T07:44:52;20.80;;;9.23;;
75823;SDS011;64457;51.976;9.834;2023-01-10T07:47:20;28.53;;;8.93;;
75823;SDS011;64457;51.976;9.834;2023-01-10T07:49:48;20.90;;;9.13;;
75823;SDS011;64457;51.976;9.834;2023-01-10T07:52:17;19.13;;;8.10;;
75823;SDS011;64457;51.976;9.834;2023-01-10T07:54:44;20.33;;;7.93;;
75823;SDS011;64457;51.976;9.834;2023-01-10T07:57:12;28.07;;;8.93;;
75823;SDS011;64457;51.976;9.834;2023-01-10T07:59:39;22.53;;;8.27;;
75823;SDS011;64457;51.976;9.834;2023-01-10T08:02:07;19.13;;;8.43;;
75823;SDS011;64457;51.976;9.834;2023-01-10T08:04:36;15.03;;;7.80;;
75823;SDS011;64457;51.976;9.834;2023-01-10T08:07:03;24.57;;;8.20;;
75823;SDS011;64457;51.976;9.834;2023-01-10T08:09:32;16.60;;;7.93;;
75823;SDS011;64457;51.976;9.834;2023-01-10T08:12:00;20.90;;;8.30;;
75823;SDS011;64457;51.976;9.834;2023-01-10T08:14:27;25.63;;;9.33;;
75823;SDS011;64457;51.976;9.834;2023-01-10T08:16:55;40.23;;;9.33;;
75823;SDS011;64457;51.976;9.834;2023-01-10T08:19:23;27.00;;;8.10;;
75823;SDS011;64457;51.976;9.834;2023-01-10T08:21:50;14.70;;;7.13;;
75823;SDS011;64457;51.976;9.834;2023-01-10T08:24:18;22.70;;;8.40;;
75823;SDS011;64457;51.976;9.834;2023-01-10T08:26:47;20.40;;;8.67;;
75823;SDS011;64457;51.976;9.834;2023-01-10T08:29:15;25.00;;;7.70;;
75823;SDS011;64457;51.976;9.834;2023-01-10T08:31:42;20.63;;;7.10;;
75823;SDS011;64457;51.976;9.834;2023-01-10T08:34:11;12.80;;;5.97;;
75823;SDS011;64457;51.976;9.834;2023-01-10T08:36:39;24.70;;;7.90;;
75823;SDS011;64457;51.976;9.834;2023-01-10T08:39:06;20.03;;;6.83;;
75823;SDS011;64457;51.976;9.834;2023-01-10T08:41:34;22.37;;;7.60;;
75823;SDS011;64457;51.976;9.834;2023-01-10T08:44:05;18.93;;;7.20;;
75823;SDS011;64457;51.976;9.834;2023-01-10T08:46:32;19.10;;;6.83;;
75823;SDS011;64457;51.976;9.834;2023-01-10T08:49:01;17.57;;;6.07;;
75823;SDS011;64457;51.976;9.834;2023-01-10T08:51:29;15.30;;;5.47;;
75823;SDS011;64457;51.976;9.834;2023-01-10T08:53:56;18.63;;;6.00;;
75823;SDS011;64457;51.976;9.834;2023-01-10T08:56:24;21.63;;;6.20;;
75823;SDS011;64457;51.976;9.834;2023-01-10T08:58:51;20.97;;;7.30;;
75823;SDS011;64457;51.976;9.834;2023-01-10T09:01:35;23.67;;;6.20;;
75823;SDS011;64457;51.976;9.834;2023-01-10T09:04:10;19.87;;;6.40;;
75823;SDS011;64457;51.976;9.834;2023-01-10T09:06:37;26.43;;;6.80;;
75823;SDS011;64457;51.976;9.834;2023-01-10T09:09:05;16.50;;;5.43;;
75823;SDS011;64457;51.976;9.834;2023-01-10T09:11:33;19.07;;;6.80;;
75823;SDS011;64457;51.976;9.834;2023-01-10T09:14:02;22.30;;;6.60;;
75823;SDS011;64457;51.976;9.834;2023-01-10T09:16:31;16.63;;;6.03;;
75823;SDS011;64457;51.976;9.834;2023-01-10T09:19:00;19.77;;;6.67;;
75823;SDS011;64457;51.976;9.834;2023-01-10T09:21:28;17.70;;;5.93;;
75823;SDS011;64457;51.976;9.834;2023-01-10T09:23:55;16.27;;;6.10;;
75823;SDS011;64457;51.976;9.834;2023-01-10T09:26:23;23.63;;;6.10;;
75823;SDS011;64457;51.976;9.834;2023-01-10T09:28:51;16.33;;;5.50;;
75823;SDS011;64457;51.976;9.834;2023-01-10T09:31:18;17.23;;;6.33;;
75823;SDS011;64457;51.976;9.834;2023-01-10T09:33:47;19.27;;;5.87;;
75823;SDS011;64457;51.976;9.834;2023-01-10T09:36:15;26.80;;;6.30;;
75823;SDS011;64457;51.976;9.834;2023-01-10T09:38:43;19.33;;;5.50;;
75823;SDS011;64457;51.976;9.834;2023-01-10T09:41:24;25.03;;;6.33;;
75823;SDS011;64457;51.976;9.834;2023-01-10T09:44:35;21.63;;;7.83;;
75823;SDS011;64457;51.976;9.834;2023-01-10T09:47:15;15.90;;;5.70;;
75823;SDS011;64457;51.976;9.834;2023-01-10T09:49:54;22.37;;;5.60;;
75823;SDS011;64457;51.976;9.834;2023-01-10T09:52:37;26.07;;;6.03;;
75823;SDS011;64457;51.976;9.834;2023-01-10T09:55:15;13.80;;;5.53;;
75823;SDS011;64457;51.976;9.834;2023-01-10T09:57:49;17.90;;;6.10;;
75823;SDS011;64457;51.976;9.834;2023-01-10T10:00:20;26.20;;;6.00;;
75823;SDS011;64457;51.976;9.834;2023-01-10T10:02:57;20.13;;;6.03;;
75823;SDS011;64457;51.976;9.834;2023-01-10T10:05:26;18.10;;;5.70;;
75823;SDS011;64457;51.976;9.834;2023-01-10T10:07:55;20.50;;;5.80;;
75823;SDS011;64457;51.976;9.834;2023-01-10T10:10:28;19.23;;;6.03;;
75823;SDS011;64457;51.976;9.834;2023-01-10T10:13:08;26.10;;;6.17;;
75823;SDS011;64457;51.976;9.834;2023-01-10T10:15:46;25.43;;;5.00;;
75823;SDS011;64457;51.976;9.834;2023-01-10T10:18:25;15.60;;;4.63;;
75823;SDS011;64457;51.976;9.834;2023-01-10T10:21:04;15.53;;;5.07;;
75823;SDS011;64457;51.976;9.834;2023-01-10T10:23:43;20.00;;;4.70;;
75823;SDS011;64457;51.976;9.834;2023-01-10T10:26:45;14.43;;;5.43;;
75823;SDS011;64457;51.976;9.834;2023-01-10T10:29:26;18.57;;;5.80;;
75823;SDS011;64457;51.976;9.834;2023-01-10T10:32:32;18.30;;;4.73;;
75823;SDS011;64457;51.976;9.834;2023-01-10T10:35:27;18.83;;;4.83;;
75823;SDS011;64457;51.976;9.834;2023-01-10T10:38:00;18.00;;;5.30;;
75823;SDS011;64457;51.976;9.834;2023-01-10T10:40:36;14.73;;;5.40;;
75823;SDS011;64457;51.976;9.834;2023-01-10T10:43:13;19.50;;;5.40;;
75823;SDS011;64457;51.976;9.834;2023-01-10T10:45:46;16.70;;;5.57;;
75823;SDS011;64457;51.976;9.834;2023-01-10T10:48:19;15.00;;;4.90;;
75823;SDS011;64457;51.976;9.834;2023-01-10T10:50:54;21.40;;;4.73;;
75823;SDS011;64457;51.976;9.834;2023-01-10T10:53:30;15.40;;;4.80;;
75823;SDS011;64457;51.976;9.834;2023-01-10T10:56:00;15.30;;;5.17;;
75823;SDS011;64457;51.976;9.834;2023-01-10T10:58:31;11.60;;;3.90;;
75823;SDS011;64457;51.976;9.834;2023-01-10T11:00:59;13.90;;;5.00;;
75823;SDS011;64457;51.976;9.834;2023-01-10T11:03:31;14.10;;;5.30;;
75823;SDS011;64457;51.976;9.834;2023-01-10T11:06:06;16.37;;;5.10;;
75823;SDS011;64457;51.976;9.834;2023-01-10T11:08:37;17.37;;;4.87;;
75823;SDS011;64457;51.976;9.834;2023-01-10T11:11:13;17.73;;;4.80;;
75823;SDS011;64457;51.976;9.834;2023-01-10T11:13:47;11.73;;;4.30;;
75823;SDS011;64457;51.976;9.834;2023-01-10T11:16:26;16.20;;;4.43;;
75823;SDS011;64457;51.976;9.834;2023-01-10T11:21:46;14.03;;;4.40;;
75823;SDS011;64457;51.976;9.834;2023-01-10T11:27:13;12.27;;;4.40;;
75823;SDS011;64457;51.976;9.834;2023-01-10T11:29:43;19.70;;;4.40;;
75823;SDS011;64457;51.976;9.834;2023-01-10T11:32:14;18.00;;;4.90;;
75823;SDS011;64457;51.976;9.834;2023-01-10T11:34:46;15.83;;;4.80;;
75823;SDS011;64457;51.976;9.834;2023-01-10T11:37:19;11.70;;;3.83;;
75823;SDS011;64457;51.976;9.834;2023-01-10T11:40:16;15.33;;;4.30;;
75823;SDS011;64457;51.976;9.834;2023-01-10T11:42:49;18.13;;;4.43;;
75823;SDS011;64457;51.976;9.834;2023-01-10T11:45:21;21.60;;;5.47;;
75823;SDS011;64457;51.976;9.834;2023-01-10T11:47:59;16.30;;;4.20;;
75823;SDS011;64457;51.976;9.834;2023-01-10T11:50:34;22.30;;;4.50;;
75823;SDS011;64457;51.976;9.834;2023-01-10T11:53:04;15.50;;;4.37;;
75823;SDS011;64457;51.976;9.834;2023-01-10T11:55:35;12.23;;;4.03;;
75823;SDS011;64457;51.976;9.834;2023-01-10T11:58:04;14.70;;;4.60;;
75823;SDS011;64457;51.976;9.834;2023-01-10T12:00:37;14.87;;;4.77;;
75823;SDS011;64457;51.976;9.834;2023-01-10T12:03:15;15.10;;;4.27;;
75823;SDS011;64457;51.976;9.834;2023-01-10T12:05:51;16.00;;;4.60;;
75823;SDS011;64457;51.976;9.834;2023-01-10T12:08:30;11.53;;;4.50;;
75823;SDS011;64457;51.976;9.834;2023-01-10T12:11:03;9.87;;;4.20;;
75823;SDS011;64457;51.976;9.834;2023-01-10T12:13:42;11.97;;;4.00;;
75823;SDS011;64457;51.976;9.834;2023-01-10T12:16:19;17.40;;;4.23;;
75823;SDS011;64457;51.976;9.834;2023-01-10T12:18:49;10.83;;;4.30;;
75823;SDS011;64457;51.976;9.834;2023-01-10T12:21:21;11.77;;;4.30;;
75823;SDS011;64457;51.976;9.834;2023-01-10T12:23:54;18.40;;;4.30;;
75823;SDS011;64457;51.976;9.834;2023-01-10T12:26:27;15.20;;;4.30;;
75823;SDS011;64457;51.976;9.834;2023-01-10T12:28:58;16.33;;;4.33;;
75823;SDS011;64457;51.976;9.834;2023-01-10T12:31:34;21.13;;;5.30;;
75823;SDS011;64457;51.976;9.834;2023-01-10T12:34:06;12.27;;;4.30;;
75823;SDS011;64457;51.976;9.834;2023-01-10T12:36:48;20.70;;;4.23;;
75823;SDS011;64457;51.976;9.834;2023-01-10T12:39:26;22.87;;;5.10;;
75823;SDS011;64457;51.976;9.834;2023-01-10T12:42:12;13.37;;;4.53;;
75823;SDS011;64457;51.976;9.834;2023-01-10T12:45:08;14.17;;;5.20;;
75823;SDS011;64457;51.976;9.834;2023-01-10T12:47:45;13.57;;;4.30;;
75823;SDS011;64457;51.976;9.834;2023-01-10T12:50:21;15.43;;;4.73;;
75823;SDS011;64457;51.976;9.834;2023-01-10T12:52:56;15.83;;;4.63;;
75823;SDS011;64457;51.976;9.834;2023-01-10T12:55:29;16.07;;;4.20;;
75823;SDS011;64457;51.976;9.834;2023-01-10T12:58:06;15.40;;;4.70;;
75823;SDS011;64457;51.976;9.834;2023-01-10T13:00:47;13.93;;;4.83;;
75823;SDS011;64457;51.976;9.834;2023-01-10T13:03:19;14.30;;;4.37;;
75823;SDS011;64457;51.976;9.834;2023-01-10T13:05:48;14.80;;;4.40;;
75823;SDS011;64457;51.976;9.834;2023-01-10T13:08:18;14.30;;;4.37;;
75823;SDS011;64457;51.976;9.834;2023-01-10T13:10:51;15.10;;;4.20;;
75823;SDS011;64457;51.976;9.834;2023-01-10T13:13:25;14.80;;;5.13;;
75823;SDS011;64457;51.976;9.834;2023-01-10T13:16:10;13.90;;;4.20;;
75823;SDS011;64457;51.976;9.834;2023-01-10T13:19:18;15.93;;;4.73;;
75823;SDS011;64457;51.976;9.834;2023-01-10T13:21:54;17.60;;;4.47;;
75823;SDS011;64457;51.976;9.834;2023-01-10T13:24:54;13.53;;;4.50;;
75823;SDS011;64457;51.976;9.834;2023-01-10T13:27:24;11.50;;;3.87;;
75823;SDS011;64457;51.976;9.834;2023-01-10T13:29:58;15.27;;;5.00;;
75823;SDS011;64457;51.976;9.834;2023-01-10T13:32:28;12.57;;;4.23;;
75823;SDS011;64457;51.976;9.834;2023-01-10T13:35:08;14.30;;;4.20;;
75823;SDS011;64457;51.976;9.834;2023-01-10T13:37:38;8.30;;;3.23;;
75823;SDS011;64457;51.976;9.834;2023-01-10T13:40:16;12.40;;;3.60;;
75823;SDS011;64457;51.976;9.834;2023-01-10T13:42:49;11.90;;;4.33;;
75823;SDS011;64457;51.976;9.834;2023-01-10T13:49:23;10.13;;;3.87;;
75823;SDS011;64457;51.976;9.834;2023-01-10T13:52:20;13.50;;;3.60;;
75823;SDS011;64457;51.976;9.834;2023-01-10T13:54:59;10.47;;;3.43;;
75823;SDS011;64457;51.976;9.834;2023-01-10T13:57:56;9.33;;;3.50;;
75823;SDS011;64457;51.976;9.834;2023-01-10T14:00:42;14.07;;;4.83;;
75823;SDS011;64457;51.976;9.834;2023-01-10T14:03:49;11.50;;;3.93;;
75823;SDS011;64457;51.976;9.834;2023-01-10T14:06:32;20.90;;;4.70;;
75823;SDS011;64457;51.976;9.834;2023-01-10T14:11:59;17.83;;;4.67;;
75823;SDS011;64457;51.976;9.834;2023-01-10T14:14:30;10.57;;;3.93;;
75823;SDS011;64457;51.976;9.834;2023-01-10T14:17:12;14.57;;;3.80;;
75823;SDS011;64457;51.976;9.834;2023-01-10T14:19:48;18.30;;;4.43;;
75823;SDS011;64457;51.976;9.834;2023-01-10T14:25:34;9.80;;;3.87;;
75823;SDS011;64457;51.976;9.834;2023-01-10T14:28:04;10.20;;;3.83;;
75823;SDS011;64457;51.976;9.834;2023-01-10T14:30:58;14.90;;;3.70;;
75823;SDS011;64457;51.976;9.834;2023-01-10T14:33:28;13.13;;;3.83;;
75823;SDS011;64457;51.976;9.834;2023-01-10T14:35:58;15.60;;;5.10;;
75823;SDS011;64457;51.976;9.834;2023-01-10T14:38:31;13.63;;;3.93;;
75823;SDS011;64457;51.976;9.834;2023-01-10T14:41:02;15.33;;;4.20;;
75823;SDS011;64457;51.976;9.834;2023-01-10T14:43:36;11.33;;;4.83;;
75823;SDS011;64457;51.976;9.834;2023-01-10T14:46:11;15.63;;;3.70;;
75823;SDS011;64457;51.976;9.834;2023-01-10T14:48:45;10.30;;;2.93;;
75823;SDS011;64457;51.976;9.834;2023-01-10T14:51:17;13.10;;;4.30;;
75823;SDS011;64457;51.976;9.834;2023-01-10T14:53:59;12.30;;;4.73;;
75823;SDS011;64457;51.976;9.834;2023-01-10T14:56:34;13.30;;;4.07;;
75823;SDS011;64457;51.976;9.834;2023-01-10T14:59:14;20.30;;;6.73;;
75823;SDS011;64457;51.976;9.834;2023-01-10T15:01:45;10.10;;;3.37;;
75823;SDS011;64457;51.976;9.834;2023-01-10T15:04:14;10.07;;;3.20;;
75823;SDS011;64457;51.976;9.834;2023-01-10T15:06:54;11.23;;;3.30;;
75823;SDS011;64457;51.976;9.834;2023-01-10T15:09:24;10.77;;;4.07;;
75823;SDS011;64457;51.976;9.834;2023-01-10T15:11:53;11.43;;;3.70;;
75823;SDS011;64457;51.976;9.834;2023-01-10T15:14:24;10.47;;;3.70;;
75823;SDS011;64457;51.976;9.834;2023-01-10T15:16:57;15.13;;;3.40;;
75823;SDS011;64457;51.976;9.834;2023-01-10T15:19:31;16.17;;;3.43;;
75823;SDS011;64457;51.976;9.834;2023-01-10T15:22:03;11.13;;;3.40;;
75823;SDS011;64457;51.976;9.834;2023-01-10T15:24:45;14.53;;;3.00;;
75823;SDS011;64457;51.976;9.834;2023-01-10T15:27:25;14.40;;;3.93;;
75823;SDS011;64457;51.976;9.834;2023-01-10T15:29:53;18.43;;;3.43;;
75823;SDS011;64457;51.976;9.834;2023-01-10T15:32:23;9.47;;;2.90;;
75823;SDS011;64457;51.976;9.834;2023-01-10T15:34:54;10.20;;;2.63;;
75823;SDS011;64457;51.976;9.834;2023-01-10T15:37:26;14.13;;;3.87;;
75823;SDS011;64457;51.976;9.834;2023-01-10T15:40:00;12.07;;;2.63;;